createdAt,value
2023-07-25T00:00:58.352Z,15.77
2023-07-25T00:01:58.748Z,15.74
2023-07-25T00:02:58.809Z,15.76
2023-07-25T00:03:59.911Z,15.73
2023-07-25T00:04:59.116Z,15.73
2023-07-25T00:05:57.317Z,15.71
2023-07-25T00:06:57.307Z,15.68
2023-07-25T00:07:58.793Z,15.68
2023-07-25T00:08:57.461Z,15.67
2023-07-25T00:09:58.473Z,15.71
2023-07-25T00:10:58.453Z,15.66
2023-07-25T00:11:58.702Z,15.67
2023-07-25T00:12:57.184Z,15.70
2023-07-25T00:13:57.185Z,15.70
2023-07-25T00:14:58.542Z,15.71
2023-07-25T00:15:58.091Z,15.70
2023-07-25T00:16:58.245Z,15.71
2023-07-25T00:17:58.962Z,15.71
2023-07-25T00:18:58.526Z,15.68
2023-07-25T00:19:57.074Z,15.71
2023-07-25T00:20:57.100Z,15.70
2023-07-25T00:21:58.373Z,15.67
2023-07-25T00:22:58.174Z,15.62
2023-07-25T00:23:57.904Z,15.60
2023-07-25T00:24:58.611Z,15.62
2023-07-25T00:25:58.802Z,15.60
2023-07-25T00:26:58.282Z,15.60
2023-07-25T00:27:57.399Z,15.60
2023-07-25T00:28:58.179Z,15.62
2023-07-25T00:29:57.039Z,15.60
2023-07-25T00:30:57.801Z,15.60
2023-07-25T00:31:58.067Z,15.59
2023-07-25T00:32:57.969Z,15.56
2023-07-25T00:33:58.132Z,15.58
2023-07-25T00:34:58.263Z,15.58
2023-07-25T00:35:58.405Z,15.59
2023-07-25T00:36:56.903Z,15.60
2023-07-25T00:37:56.832Z,15.59
2023-07-25T00:38:58.259Z,15.59
2023-07-25T00:39:56.844Z,15.56
2023-07-25T00:40:58.357Z,15.53
2023-07-25T00:41:57.864Z,15.51
2023-07-25T00:42:58.117Z,15.51
2023-07-25T00:43:58.200Z,15.49
2023-07-25T00:44:56.762Z,15.48
2023-07-25T00:45:57.947Z,15.46
2023-07-25T00:46:56.740Z,15.44
2023-07-25T00:47:56.815Z,15.41
2023-07-25T00:48:56.748Z,15.44
2023-07-25T00:49:57.846Z,15.46
2023-07-25T00:50:57.868Z,15.46
2023-07-25T00:51:57.905Z,15.43
2023-07-25T00:52:58.092Z,15.43
2023-07-25T00:53:57.987Z,15.43
2023-07-25T00:54:57.125Z,15.40
2023-07-25T00:55:57.900Z,15.41
2023-07-25T00:56:58.493Z,15.40
2023-07-25T00:57:57.596Z,15.41
2023-07-25T00:58:57.831Z,15.40
2023-07-25T00:59:57.865Z,15.40
2023-07-25T01:00:57.907Z,15.43
2023-07-25T01:01:56.650Z,15.43
2023-07-25T01:02:57.785Z,15.41
2023-07-25T01:03:57.885Z,15.38
2023-07-25T01:04:57.432Z,15.41
2023-07-25T01:05:57.592Z,15.40
2023-07-25T01:06:59.344Z,15.38
2023-07-25T01:07:57.924Z,15.37
2023-07-25T01:08:56.441Z,15.37
2023-07-25T01:09:56.483Z,15.35
2023-07-25T01:10:56.456Z,15.34
2023-07-25T01:11:57.911Z,15.33
2023-07-25T01:12:57.627Z,15.30
2023-07-25T01:13:57.593Z,15.33
2023-07-25T01:14:57.760Z,15.30
2023-07-25T01:15:56.900Z,15.30
2023-07-25T01:16:56.377Z,15.30
2023-07-25T01:17:56.462Z,15.31
2023-07-25T01:18:56.521Z,15.30
2023-07-25T01:19:57.376Z,15.30
2023-07-25T01:20:57.553Z,15.30
2023-07-25T01:21:57.656Z,15.30
2023-07-25T01:22:57.786Z,15.31
2023-07-25T01:23:56.276Z,15.37
2023-07-25T01:24:56.297Z,15.31
2023-07-25T01:25:57.593Z,15.27
2023-07-25T01:26:57.699Z,15.27
2023-07-25T01:27:57.350Z,15.25
2023-07-25T01:28:57.474Z,15.23
2023-07-25T01:29:58.057Z,15.27
2023-07-25T01:30:57.777Z,15.25
2023-07-25T01:31:56.121Z,15.25
2023-07-25T01:32:57.456Z,15.23
2023-07-25T01:33:57.540Z,15.22
2023-07-25T01:34:57.650Z,15.20
2023-07-25T01:35:57.766Z,15.20
2023-07-25T01:36:57.882Z,15.22
2023-07-25T01:37:57.338Z,15.22
2023-07-25T01:38:56.081Z,15.20
2023-07-25T01:39:56.066Z,15.20
2023-07-25T01:40:56.042Z,15.20
2023-07-25T01:41:56.046Z,15.20
2023-07-25T01:42:57.624Z,15.22
2023-07-25T01:43:57.754Z,15.23
2023-07-25T01:44:57.208Z,15.22
2023-07-25T01:45:58.022Z,15.22
2023-07-25T01:46:56.479Z,15.22
2023-07-25T01:47:55.984Z,15.25
2023-07-25T01:48:57.325Z,15.23
2023-07-25T01:49:57.461Z,15.23
2023-07-25T01:50:57.113Z,15.23
2023-07-25T01:51:57.710Z,15.25
2023-07-25T01:52:57.188Z,15.22
2023-07-25T01:53:55.893Z,15.22
2023-07-25T01:54:56.482Z,15.23
2023-07-25T01:55:57.305Z,15.22
2023-07-25T01:56:57.373Z,15.19
2023-07-25T01:57:56.954Z,15.19
2023-07-25T01:58:57.114Z,15.19
2023-07-25T01:59:57.725Z,15.19
2023-07-25T02:00:56.825Z,15.19
2023-07-25T02:01:55.870Z,15.18
2023-07-25T02:02:57.095Z,15.20
2023-07-25T02:03:57.185Z,15.20
2023-07-25T02:04:56.800Z,15.18
2023-07-25T02:05:56.976Z,15.15
2023-07-25T02:06:57.616Z,15.13
2023-07-25T02:07:57.299Z,15.12
2023-07-25T02:08:56.349Z,15.11
2023-07-25T02:09:55.641Z,15.07
2023-07-25T02:10:56.475Z,15.09
2023-07-25T02:11:56.675Z,15.12
2023-07-25T02:12:56.909Z,15.11
2023-07-25T02:13:56.967Z,15.12
2023-07-25T02:14:55.569Z,15.12
2023-07-25T02:15:55.579Z,15.12
2023-07-25T02:16:56.192Z,15.12
2023-07-25T02:17:55.571Z,15.15
2023-07-25T02:18:56.469Z,15.16
2023-07-25T02:19:56.572Z,15.18
2023-07-25T02:20:56.582Z,15.13
2023-07-25T02:21:56.708Z,15.15
2023-07-25T02:22:56.929Z,15.15
2023-07-25T02:23:55.493Z,15.13
2023-07-25T02:24:55.535Z,15.11
2023-07-25T02:25:55.489Z,15.09
2023-07-25T02:26:55.499Z,15.12
2023-07-25T02:27:56.875Z,15.11
2023-07-25T02:28:56.539Z,15.11
2023-07-25T02:29:56.603Z,15.09
2023-07-25T02:30:56.678Z,15.07
2023-07-25T02:31:56.773Z,15.03
2023-07-25T02:32:55.479Z,15.15
2023-07-25T02:33:55.318Z,15.01
2023-07-25T02:34:56.552Z,15.01
2023-07-25T02:35:56.767Z,15.00
2023-07-25T02:36:56.801Z,14.94
2023-07-25T02:37:56.438Z,14.97
2023-07-25T02:38:56.595Z,14.97
2023-07-25T02:39:57.182Z,14.95
2023-07-25T02:40:55.263Z,14.94
2023-07-25T02:41:55.232Z,14.91
2023-07-25T02:42:55.237Z,14.90
2023-07-25T02:43:56.652Z,14.85
2023-07-25T02:44:56.309Z,14.83
2023-07-25T02:45:56.394Z,14.82
2023-07-25T02:46:56.553Z,14.79
2023-07-25T02:47:55.746Z,14.79
2023-07-25T02:48:55.150Z,14.75
2023-07-25T02:49:55.157Z,14.75
2023-07-25T02:50:56.576Z,14.74
2023-07-25T02:51:56.134Z,14.71
2023-07-25T02:52:56.399Z,14.72
2023-07-25T02:53:56.470Z,14.69
2023-07-25T02:54:55.072Z,14.67
2023-07-25T02:55:55.166Z,14.67
2023-07-25T02:56:55.083Z,14.66
2023-07-25T02:57:56.432Z,14.67
2023-07-25T02:58:56.112Z,14.66
2023-07-25T02:59:56.124Z,14.64
2023-07-25T03:00:56.303Z,14.64
2023-07-25T03:01:56.478Z,14.63
2023-07-25T03:02:55.031Z,14.63
2023-07-25T03:03:54.967Z,14.63
2023-07-25T03:04:56.372Z,14.61
2023-07-25T03:05:56.068Z,14.60
2023-07-25T03:06:56.234Z,14.60
2023-07-25T03:07:56.262Z,14.60
2023-07-25T03:08:56.279Z,14.59
2023-07-25T03:09:55.991Z,14.59
2023-07-25T03:10:56.113Z,14.57
2023-07-25T03:11:56.190Z,14.57
2023-07-25T03:12:56.344Z,14.59
2023-07-25T03:13:56.060Z,14.59
2023-07-25T03:14:55.966Z,14.57
2023-07-25T03:15:56.128Z,14.59
2023-07-25T03:16:54.784Z,14.56
2023-07-25T03:17:54.816Z,14.46
2023-07-25T03:18:55.585Z,14.59
2023-07-25T03:19:56.316Z,14.61
2023-07-25T03:20:56.340Z,14.60
2023-07-25T03:21:56.002Z,14.63
2023-07-25T03:22:56.217Z,14.63
2023-07-25T03:23:54.683Z,14.63
2023-07-25T03:24:54.793Z,14.61
2023-07-25T03:25:56.059Z,14.60
2023-07-25T03:26:56.140Z,14.57
2023-07-25T03:27:56.253Z,14.59
2023-07-25T03:28:55.916Z,14.59
2023-07-25T03:29:56.085Z,14.60
2023-07-25T03:30:54.601Z,14.63
2023-07-25T03:31:54.591Z,14.61
2023-07-25T03:32:54.682Z,14.63
2023-07-25T03:33:56.115Z,14.60
2023-07-25T03:34:55.649Z,14.60
2023-07-25T03:35:55.807Z,14.59
2023-07-25T03:36:55.934Z,14.59
2023-07-25T03:37:54.528Z,14.59
2023-07-25T03:38:54.525Z,14.59
2023-07-25T03:39:54.508Z,14.64
2023-07-25T03:40:56.000Z,14.57
2023-07-25T03:41:56.019Z,14.56
2023-07-25T03:42:55.741Z,14.54
2023-07-25T03:43:55.742Z,14.54
2023-07-25T03:44:55.909Z,14.54
2023-07-25T03:45:54.513Z,14.54
2023-07-25T03:46:55.668Z,14.54
2023-07-25T03:47:54.408Z,14.54
2023-07-25T03:48:55.926Z,14.56
2023-07-25T03:49:55.595Z,14.57
2023-07-25T03:50:57.185Z,14.57
2023-07-25T03:51:57.291Z,14.61
2023-07-25T03:52:55.046Z,14.61
2023-07-25T03:53:54.984Z,14.60
2023-07-25T03:54:55.134Z,14.59
2023-07-25T03:55:55.841Z,14.59
2023-07-25T03:56:56.886Z,14.59
2023-07-25T03:57:55.535Z,14.59
2023-07-25T03:58:55.643Z,14.56
2023-07-25T03:59:54.254Z,14.54
2023-07-25T04:00:54.189Z,14.54
2023-07-25T04:01:55.565Z,14.56
2023-07-25T04:03:09.152Z,14.54
2023-07-25T04:03:56.192Z,14.56
2023-07-25T04:04:56.830Z,14.56
2023-07-25T04:05:55.425Z,14.56
2023-07-25T04:06:56.181Z,14.54
2023-07-25T04:07:54.120Z,14.48
2023-07-25T04:08:54.121Z,14.45
2023-07-25T04:09:54.156Z,14.45
2023-07-25T04:10:55.597Z,14.44
2023-07-25T04:11:55.241Z,14.45
2023-07-25T04:12:55.344Z,14.48
2023-07-25T04:13:55.461Z,14.46
2023-07-25T04:14:54.095Z,14.45
2023-07-25T04:15:54.060Z,14.45
2023-07-25T04:16:54.092Z,14.45
2023-07-25T04:17:54.018Z,14.44
2023-07-25T04:18:55.516Z,14.42
2023-07-25T04:19:55.155Z,14.45
2023-07-25T04:20:55.262Z,14.42
2023-07-25T04:21:55.930Z,14.45
2023-07-25T04:22:53.957Z,14.44
2023-07-25T04:23:53.880Z,14.46
2023-07-25T04:24:54.029Z,14.46
2023-07-25T04:25:55.306Z,14.53
2023-07-25T04:26:55.537Z,14.45
2023-07-25T04:27:55.648Z,14.45
2023-07-25T04:28:55.681Z,14.46
2023-07-25T04:29:55.173Z,14.45
2023-07-25T04:30:54.917Z,14.44
2023-07-25T04:31:54.473Z,14.42
2023-07-25T04:32:55.246Z,14.42
2023-07-25T04:33:55.302Z,14.39
2023-07-25T04:34:54.657Z,14.36
2023-07-25T04:35:54.839Z,14.36
2023-07-25T04:36:55.059Z,14.39
2023-07-25T04:37:53.728Z,14.41
2023-07-25T04:38:53.776Z,14.39
2023-07-25T04:39:53.717Z,14.42
2023-07-25T04:40:53.760Z,14.41
2023-07-25T04:41:53.946Z,14.35
2023-07-25T04:42:54.898Z,14.35
2023-07-25T04:43:54.856Z,14.36
2023-07-25T04:44:57.161Z,14.39
2023-07-25T04:45:54.884Z,14.35
2023-07-25T04:46:53.685Z,14.38
2023-07-25T04:47:53.689Z,14.38
2023-07-25T04:48:55.073Z,14.39
2023-07-25T04:49:54.684Z,14.42
2023-07-25T04:50:54.940Z,14.45
2023-07-25T04:51:55.001Z,14.45
2023-07-25T04:52:53.572Z,14.46
2023-07-25T04:53:53.584Z,14.48
2023-07-25T04:54:54.830Z,14.45
2023-07-25T04:55:54.983Z,14.52
2023-07-25T04:56:54.631Z,14.54
2023-07-25T04:57:54.791Z,14.56
2023-07-25T04:58:54.698Z,14.56
2023-07-25T04:59:53.413Z,14.60
2023-07-25T05:00:54.589Z,14.59
2023-07-25T05:01:54.711Z,14.57
2023-07-25T05:02:55.954Z,14.56
2023-07-25T05:03:54.555Z,14.57
2023-07-25T05:04:54.618Z,14.60
2023-07-25T05:05:55.284Z,14.61
2023-07-25T05:06:53.326Z,14.66
2023-07-25T05:07:53.322Z,14.67
2023-07-25T05:08:53.329Z,14.67
2023-07-25T05:09:53.396Z,14.67
2023-07-25T05:10:54.451Z,14.67
2023-07-25T05:11:54.457Z,14.69
2023-07-25T05:12:56.125Z,14.74
2023-07-25T05:13:53.248Z,14.79
2023-07-25T05:14:53.917Z,14.80
2023-07-25T05:15:54.542Z,14.83
2023-07-25T05:16:54.686Z,14.83
2023-07-25T05:17:54.787Z,14.83
2023-07-25T05:18:54.409Z,14.86
2023-07-25T05:19:54.522Z,14.87
2023-07-25T05:20:55.101Z,14.93
2023-07-25T05:21:53.162Z,14.94
2023-07-25T05:22:53.195Z,14.95
2023-07-25T05:23:53.152Z,14.97
2023-07-25T05:24:54.649Z,15.00
2023-07-25T05:25:54.264Z,15.01
2023-07-25T05:26:54.315Z,15.04
2023-07-25T05:27:54.469Z,15.07
2023-07-25T05:28:54.089Z,15.04
2023-07-25T05:29:53.075Z,15.05
2023-07-25T05:30:54.340Z,15.05
2023-07-25T05:31:54.486Z,15.07
2023-07-25T05:32:53.237Z,15.11
2023-07-25T05:33:54.156Z,15.12
2023-07-25T05:34:55.842Z,15.13
2023-07-25T05:35:54.465Z,15.16
2023-07-25T05:36:53.511Z,15.16
2023-07-25T05:37:53.601Z,15.16
2023-07-25T05:38:52.924Z,15.18
2023-07-25T05:39:53.833Z,15.16
2023-07-25T05:40:54.076Z,15.16
2023-07-25T05:41:54.143Z,15.12
2023-07-25T05:42:54.800Z,15.12
2023-07-25T05:43:52.827Z,15.09
2023-07-25T05:44:52.825Z,15.11
2023-07-25T05:45:54.230Z,15.09
2023-07-25T05:46:54.263Z,15.05
2023-07-25T05:47:53.864Z,15.03
2023-07-25T05:48:53.983Z,15.00
2023-07-25T05:49:54.144Z,15.00
2023-07-25T05:50:52.746Z,15.00
2023-07-25T05:51:53.928Z,14.95
2023-07-25T05:52:53.608Z,14.95
2023-07-25T05:53:54.175Z,14.83
2023-07-25T05:54:54.248Z,14.80
2023-07-25T05:55:53.908Z,14.75
2023-07-25T05:56:53.983Z,14.75
2023-07-25T05:57:54.660Z,14.75
2023-07-25T05:58:53.593Z,14.78
2023-07-25T05:59:52.672Z,14.78
2023-07-25T06:00:53.940Z,14.75
2023-07-25T06:01:53.992Z,14.72
2023-07-25T06:02:53.684Z,14.71
2023-07-25T06:03:53.772Z,14.66
2023-07-25T06:04:53.722Z,14.63
2023-07-25T06:05:53.873Z,14.60
2023-07-25T06:06:52.577Z,14.57
2023-07-25T06:07:54.261Z,14.57
2023-07-25T06:08:53.285Z,14.60
2023-07-25T06:09:53.926Z,14.57
2023-07-25T06:10:53.395Z,14.57
2023-07-25T06:11:54.301Z,14.56
2023-07-25T06:12:53.721Z,14.54
2023-07-25T06:13:52.474Z,14.56
2023-07-25T06:14:53.019Z,14.60
2023-07-25T06:15:53.742Z,14.64
2023-07-25T06:16:53.355Z,14.66
2023-07-25T06:17:54.018Z,14.67
2023-07-25T06:18:55.107Z,14.67
2023-07-25T06:19:55.236Z,14.66
2023-07-25T06:20:55.338Z,14.69
2023-07-25T06:21:52.964Z,14.71
2023-07-25T06:22:52.340Z,14.72
2023-07-25T06:23:53.203Z,14.71
2023-07-25T06:24:53.877Z,14.69
2023-07-25T06:25:53.988Z,14.66
2023-07-25T06:26:55.181Z,14.66
2023-07-25T06:27:54.761Z,14.67
2023-07-25T06:28:54.004Z,14.71
2023-07-25T06:29:52.294Z,14.71
2023-07-25T06:30:53.039Z,14.66
2023-07-25T06:31:53.799Z,14.64
2023-07-25T06:32:55.387Z,14.63
2023-07-25T06:33:53.502Z,14.63
2023-07-25T06:34:53.659Z,14.66
2023-07-25T06:35:52.700Z,14.67
2023-07-25T06:36:52.828Z,14.66
2023-07-25T06:37:52.955Z,14.66
2023-07-25T06:38:53.647Z,14.67
2023-07-25T06:39:54.598Z,14.66
2023-07-25T06:40:53.350Z,14.69
2023-07-25T06:41:53.236Z,14.71
2023-07-25T06:42:53.401Z,14.72
2023-07-25T06:43:52.102Z,14.71
2023-07-25T06:44:53.267Z,14.69
2023-07-25T06:45:53.267Z,14.69
2023-07-25T06:46:53.454Z,14.71
2023-07-25T06:47:52.938Z,14.75
2023-07-25T06:48:53.686Z,14.78
2023-07-25T06:49:54.786Z,14.79
2023-07-25T06:50:54.950Z,14.83
2023-07-25T06:51:52.505Z,14.85
2023-07-25T06:52:52.594Z,14.90
2023-07-25T06:53:53.338Z,14.90
2023-07-25T06:54:53.396Z,14.91
2023-07-25T06:55:54.612Z,14.90
2023-07-25T06:56:53.237Z,14.86
2023-07-25T06:57:54.901Z,14.87
2023-07-25T06:58:53.559Z,14.86
2023-07-25T06:59:51.883Z,14.87
2023-07-25T07:00:53.282Z,14.91
2023-07-25T07:01:51.986Z,14.97
2023-07-25T07:02:53.143Z,14.97
2023-07-25T07:03:53.203Z,15.00
2023-07-25T07:04:52.327Z,15.01
2023-07-25T07:05:51.803Z,15.03
2023-07-25T07:06:53.117Z,15.07
2023-07-25T07:07:53.195Z,15.07
2023-07-25T07:08:52.872Z,15.07
2023-07-25T07:09:53.127Z,15.11
2023-07-25T07:10:53.033Z,15.05
2023-07-25T07:11:53.177Z,15.07
2023-07-25T07:12:52.469Z,15.11
2023-07-25T07:13:53.021Z,15.07
2023-07-25T07:14:53.140Z,15.05
2023-07-25T07:15:54.339Z,15.05
2023-07-25T07:16:53.448Z,15.05
2023-07-25T07:17:53.890Z,15.04
2023-07-25T07:18:52.310Z,15.01
2023-07-25T07:19:52.268Z,14.98
2023-07-25T07:20:52.977Z,14.95
2023-07-25T07:21:53.179Z,14.94
2023-07-25T07:22:52.676Z,14.90
2023-07-25T07:23:54.383Z,14.91
2023-07-25T07:24:54.646Z,14.90
2023-07-25T07:25:52.159Z,14.90
2023-07-25T07:26:52.800Z,14.86
2023-07-25T07:27:52.966Z,14.86
2023-07-25T07:28:52.573Z,14.86
2023-07-25T07:29:52.727Z,14.87
2023-07-25T07:30:54.407Z,14.93
2023-07-25T07:31:51.484Z,14.93
2023-07-25T07:32:51.432Z,14.94
2023-07-25T07:33:51.405Z,14.93
2023-07-25T07:34:52.513Z,14.93
2023-07-25T07:35:52.560Z,14.93
2023-07-25T07:36:53.242Z,14.93
2023-07-25T07:37:51.408Z,14.87
2023-07-25T07:38:51.934Z,14.91
2023-07-25T07:39:51.313Z,14.87
2023-07-25T07:40:52.258Z,14.87
2023-07-25T07:41:51.642Z,14.85
2023-07-25T07:42:52.558Z,14.90
2023-07-25T07:43:52.728Z,14.91
2023-07-25T07:44:52.274Z,14.93
2023-07-25T07:45:51.274Z,14.95
2023-07-25T07:46:52.029Z,14.91
2023-07-25T07:47:52.776Z,14.87
2023-07-25T07:48:52.186Z,14.87
2023-07-25T07:49:52.335Z,14.90
2023-07-25T07:50:53.210Z,14.90
2023-07-25T07:52:09.020Z,14.87
2023-07-25T07:52:52.821Z,14.90
2023-07-25T07:53:51.964Z,14.94
2023-07-25T07:54:52.650Z,14.93
2023-07-25T07:55:51.333Z,14.91
2023-07-25T07:56:52.453Z,14.94
2023-07-25T07:57:52.593Z,14.95
2023-07-25T07:58:51.080Z,14.94
2023-07-25T07:59:51.079Z,14.95
2023-07-25T08:00:52.430Z,14.97
2023-07-25T08:01:52.625Z,14.98
2023-07-25T08:02:52.363Z,14.97
2023-07-25T08:03:52.431Z,14.98
2023-07-25T08:04:51.524Z,14.98
2023-07-25T08:05:50.986Z,14.98
2023-07-25T08:06:52.313Z,15.01
2023-07-25T08:07:52.474Z,15.04
2023-07-25T08:08:52.050Z,15.03
2023-07-25T08:09:52.219Z,15.03
2023-07-25T08:10:52.373Z,14.97
2023-07-25T08:11:50.916Z,15.03
2023-07-25T08:12:50.913Z,15.05
2023-07-25T08:13:52.313Z,15.11
2023-07-25T08:14:52.506Z,15.13
2023-07-25T08:15:52.641Z,15.19
2023-07-25T08:16:52.764Z,15.22
2023-07-25T08:17:51.907Z,15.30
2023-07-25T08:18:50.832Z,15.34
2023-07-25T08:19:50.837Z,15.38
2023-07-25T08:20:52.321Z,15.37
2023-07-25T08:21:51.938Z,15.40
2023-07-25T08:22:52.125Z,15.38
2023-07-25T08:23:52.252Z,15.38
2023-07-25T08:24:50.770Z,15.40
2023-07-25T08:25:50.757Z,15.44
2023-07-25T08:26:50.756Z,15.41
2023-07-25T08:27:51.758Z,15.43
2023-07-25T08:28:51.932Z,15.46
2023-07-25T08:29:52.123Z,15.49
2023-07-25T08:30:50.678Z,15.51
2023-07-25T08:31:50.707Z,15.52
2023-07-25T08:32:50.697Z,15.53
2023-07-25T08:33:51.455Z,15.56
2023-07-25T08:34:51.617Z,15.58
2023-07-25T08:35:51.891Z,15.58
2023-07-25T08:36:51.953Z,15.55
2023-07-25T08:37:50.600Z,15.59
2023-07-25T08:38:51.786Z,15.60
2023-07-25T08:39:51.915Z,15.66
2023-07-25T08:40:52.041Z,15.66
2023-07-25T08:41:52.695Z,15.67
2023-07-25T08:42:52.353Z,15.73
2023-07-25T08:43:53.561Z,15.77
2023-07-25T08:44:50.515Z,15.84
2023-07-25T08:45:50.562Z,15.89
2023-07-25T08:46:51.794Z,15.93
2023-07-25T08:47:52.001Z,15.92
2023-07-25T08:48:51.579Z,15.93
2023-07-25T08:49:52.211Z,15.96
2023-07-25T08:50:52.372Z,15.93
2023-07-25T08:51:52.478Z,15.96
2023-07-25T08:52:50.362Z,15.98
2023-07-25T08:53:51.670Z,15.92
2023-07-25T08:54:51.868Z,15.86
2023-07-25T08:55:51.945Z,15.88
2023-07-25T08:56:51.553Z,15.91
2023-07-25T08:57:51.700Z,15.91
2023-07-25T08:58:52.313Z,15.88
2023-07-25T08:59:50.266Z,15.88
2023-07-25T09:00:50.899Z,15.85
2023-07-25T09:01:51.341Z,15.88
2023-07-25T09:02:53.723Z,15.88
2023-07-25T09:03:51.470Z,15.93
2023-07-25T09:04:51.585Z,15.93
2023-07-25T09:05:52.149Z,15.91
2023-07-25T09:06:50.582Z,15.93
2023-07-25T09:07:50.188Z,15.89
2023-07-25T09:08:50.907Z,15.86
2023-07-25T09:09:51.704Z,15.80
2023-07-25T09:10:51.222Z,15.81
2023-07-25T09:11:51.392Z,15.81
2023-07-25T09:12:51.552Z,15.81
2023-07-25T09:13:50.102Z,15.86
2023-07-25T09:14:50.100Z,15.89
2023-07-25T09:15:50.129Z,15.91
2023-07-25T09:16:51.610Z,15.88
2023-07-25T09:17:51.369Z,15.92
2023-07-25T09:18:51.224Z,15.92
2023-07-25T09:19:51.395Z,15.93
2023-07-25T09:20:50.026Z,15.96
2023-07-25T09:21:51.214Z,15.98
2023-07-25T09:22:50.057Z,15.98
2023-07-25T09:23:51.468Z,16.03
2023-07-25T09:24:51.207Z,16.08
2023-07-25T09:25:51.263Z,16.08
2023-07-25T09:26:51.221Z,16.06
2023-07-25T09:27:49.941Z,16.06
2023-07-25T09:28:49.955Z,16.06
2023-07-25T09:29:49.944Z,16.08
2023-07-25T09:30:51.309Z,16.14
2023-07-25T09:31:51.639Z,16.18
2023-07-25T09:32:51.091Z,16.23
2023-07-25T09:33:51.138Z,16.27
2023-07-25T09:34:51.268Z,16.30
2023-07-25T09:35:51.376Z,16.29
2023-07-25T09:36:49.792Z,16.29
2023-07-25T09:37:51.034Z,16.29
2023-07-25T09:38:51.120Z,16.33
2023-07-25T09:39:52.545Z,16.34
2023-07-25T09:40:51.333Z,16.41
2023-07-25T09:41:50.816Z,16.48
2023-07-25T09:42:50.963Z,16.55
2023-07-25T09:43:51.131Z,16.60
2023-07-25T09:44:50.778Z,16.67
2023-07-25T09:45:49.766Z,16.75
2023-07-25T09:46:49.706Z,16.82
2023-07-25T09:47:51.254Z,16.90
2023-07-25T09:48:50.661Z,16.96
2023-07-25T09:49:50.898Z,17.03
2023-07-25T09:50:50.970Z,17.06
2023-07-25T09:51:49.640Z,17.09
2023-07-25T09:52:49.653Z,17.10
2023-07-25T09:53:51.018Z,17.15
2023-07-25T09:54:49.559Z,17.15
2023-07-25T09:55:50.490Z,17.17
2023-07-25T09:56:50.650Z,17.17
2023-07-25T09:57:50.801Z,17.24
2023-07-25T09:59:50.956Z,17.21
2023-07-25T10:00:49.470Z,17.20
2023-07-25T10:01:50.736Z,17.14
2023-07-25T10:02:50.947Z,17.15
2023-07-25T10:03:50.628Z,17.12
2023-07-25T10:04:50.570Z,17.15
2023-07-25T10:05:50.690Z,17.20
2023-07-25T10:06:50.825Z,17.27
2023-07-25T10:07:50.875Z,17.32
2023-07-25T10:08:49.393Z,17.38
2023-07-25T10:09:49.395Z,17.46
2023-07-25T10:10:49.390Z,17.47
2023-07-25T10:11:50.785Z,17.43
2023-07-25T10:12:50.418Z,17.35
2023-07-25T10:13:50.589Z,17.28
2023-07-25T10:14:50.710Z,17.33
2023-07-25T10:15:50.640Z,17.35
2023-07-25T10:16:49.316Z,17.24
2023-07-25T10:17:49.328Z,17.28
2023-07-25T10:18:50.557Z,17.36
2023-07-25T10:19:50.746Z,17.47
2023-07-25T10:20:50.139Z,17.57
2023-07-25T10:21:50.317Z,17.66
2023-07-25T10:22:50.461Z,17.73
2023-07-25T10:23:50.633Z,17.77
2023-07-25T10:24:49.203Z,17.77
2023-07-25T10:25:49.168Z,17.79
2023-07-25T10:26:50.430Z,17.70
2023-07-25T10:27:49.163Z,17.58
2023-07-25T10:28:50.140Z,17.55
2023-07-25T10:29:50.320Z,17.49
2023-07-25T10:30:50.200Z,17.42
2023-07-25T10:31:50.421Z,17.42
2023-07-25T10:32:50.554Z,17.47
2023-07-25T10:33:49.089Z,17.57
2023-07-25T10:34:49.084Z,17.66
2023-07-25T10:35:49.011Z,17.74
2023-07-25T10:36:50.528Z,17.83
2023-07-25T10:37:50.113Z,17.87
2023-07-25T10:38:50.943Z,17.98
2023-07-25T10:39:50.363Z,18.07
2023-07-25T10:40:51.481Z,18.16
2023-07-25T10:41:48.987Z,18.20
2023-07-25T10:43:48.921Z,18.31
2023-07-25T10:44:50.342Z,18.26
2023-07-25T10:45:50.455Z,18.16
2023-07-25T10:46:50.141Z,18.02
2023-07-25T10:47:50.172Z,17.94
2023-07-25T10:48:50.327Z,17.98
2023-07-25T10:49:50.179Z,18.10
2023-07-25T10:50:48.889Z,18.20
2023-07-25T10:51:48.833Z,18.29
2023-07-25T10:52:48.844Z,18.31
2023-07-25T10:53:48.851Z,18.49
2023-07-25T10:54:49.944Z,18.59
2023-07-25T10:55:48.925Z,18.75
2023-07-25T10:56:49.748Z,18.87
2023-07-25T10:57:50.179Z,18.94
2023-07-25T10:58:50.065Z,18.93
2023-07-25T10:59:49.995Z,18.87
2023-07-25T11:00:50.193Z,18.86
2023-07-25T11:01:48.693Z,18.83
2023-07-25T11:02:48.710Z,18.69
2023-07-25T11:03:48.709Z,18.56
2023-07-25T11:04:49.503Z,18.49
2023-07-25T11:05:49.661Z,18.39
2023-07-25T11:06:50.255Z,18.32
2023-07-25T11:07:49.727Z,18.14
2023-07-25T11:08:49.931Z,18.02
2023-07-25T11:09:50.031Z,17.99
2023-07-25T11:10:48.591Z,17.95
2023-07-25T11:11:49.755Z,17.98
2023-07-25T11:12:48.606Z,18.05
2023-07-25T11:13:48.791Z,18.13
2023-07-25T11:14:49.502Z,18.23
2023-07-25T11:15:49.564Z,18.35
2023-07-25T11:16:50.246Z,18.39
2023-07-25T11:17:49.843Z,18.46
2023-07-25T11:18:49.902Z,18.44
2023-07-25T11:19:49.988Z,18.51
2023-07-25T11:20:48.436Z,18.64
2023-07-25T11:21:48.444Z,18.68
2023-07-25T11:22:49.745Z,18.71
2023-07-25T11:23:49.862Z,18.54
2023-07-25T11:24:49.954Z,18.54
2023-07-25T11:25:49.550Z,18.57
2023-07-25T11:26:49.701Z,18.50
2023-07-25T11:27:49.721Z,18.49
2023-07-25T11:28:49.871Z,18.57
2023-07-25T11:29:48.372Z,18.59
2023-07-25T11:30:48.380Z,18.54
2023-07-25T11:31:49.229Z,18.46
2023-07-25T11:32:49.150Z,18.38
2023-07-25T11:33:49.270Z,18.32
2023-07-25T11:34:49.435Z,18.34
2023-07-25T11:35:49.344Z,18.41
2023-07-25T11:36:49.511Z,18.54
2023-07-25T11:37:49.679Z,18.54
2023-07-25T11:38:48.288Z,18.50
2023-07-25T11:39:48.958Z,18.50
2023-07-25T11:40:49.534Z,18.53
2023-07-25T11:41:49.667Z,18.57
2023-07-25T11:42:50.756Z,18.68
2023-07-25T11:43:49.338Z,18.56
2023-07-25T11:44:50.476Z,18.50
2023-07-25T11:45:50.574Z,18.50
2023-07-25T11:46:48.200Z,18.49
2023-07-25T11:47:48.829Z,18.42
2023-07-25T11:48:48.120Z,18.50
2023-07-25T11:49:58.622Z,18.66
2023-07-25T11:50:50.294Z,18.82
2023-07-25T11:51:49.276Z,18.96
2023-07-25T11:52:49.492Z,18.99
2023-07-25T11:53:49.457Z,18.99
2023-07-25T11:54:50.058Z,19.02
2023-07-25T11:55:47.973Z,18.93
2023-07-25T11:56:47.957Z,18.93
2023-07-25T11:57:47.956Z,18.94
2023-07-25T11:58:49.420Z,18.94
2023-07-25T11:59:49.074Z,18.86
2023-07-25T12:00:48.428Z,18.76
2023-07-25T12:01:49.265Z,18.69
2023-07-25T12:02:49.359Z,18.68
2023-07-25T12:03:49.182Z,18.71
2023-07-25T12:04:47.878Z,18.74
2023-07-25T12:05:47.867Z,18.83
2023-07-25T12:06:48.675Z,18.83
2023-07-25T12:07:49.403Z,18.78
2023-07-25T12:08:48.986Z,18.72
2023-07-25T12:09:49.625Z,18.76
2023-07-25T12:10:49.064Z,18.79
2023-07-25T12:11:49.254Z,18.74
2023-07-25T12:12:47.778Z,18.66
2023-07-25T12:13:48.512Z,18.60
2023-07-25T12:14:47.794Z,18.64
2023-07-25T12:15:48.575Z,18.75
2023-07-25T12:16:48.774Z,18.83
2023-07-25T12:17:49.365Z,18.89
2023-07-25T12:18:48.801Z,18.99
2023-07-25T12:19:48.950Z,19.07
2023-07-25T12:20:57.941Z,19.13
2023-07-25T12:21:48.986Z,19.34
2023-07-25T12:22:48.210Z,19.52
2023-07-25T12:23:48.298Z,19.67
2023-07-25T12:24:47.672Z,19.82
2023-07-25T12:25:47.623Z,19.87
2023-07-25T12:26:48.812Z,20.08
2023-07-25T12:27:48.726Z,20.17
2023-07-25T12:28:50.303Z,20.30
2023-07-25T12:29:48.877Z,20.15
2023-07-25T12:30:48.928Z,20.16
2023-07-25T12:31:47.548Z,20.25
2023-07-25T12:32:47.636Z,20.40
2023-07-25T12:33:48.180Z,20.61
2023-07-25T12:34:47.457Z,20.75
2023-07-25T12:35:48.865Z,20.93
2023-07-25T12:36:49.002Z,20.83
2023-07-25T12:37:48.514Z,20.90
2023-07-25T12:38:48.668Z,21.00
2023-07-25T12:39:48.569Z,21.05
2023-07-25T12:40:48.846Z,21.15
2023-07-25T12:41:47.441Z,21.12
2023-07-25T12:42:47.375Z,20.98
2023-07-25T12:43:47.375Z,21.00
2023-07-25T12:44:47.373Z,20.93
2023-07-25T12:45:48.333Z,20.76
2023-07-25T12:46:48.846Z,20.71
2023-07-25T12:47:49.107Z,20.60
2023-07-25T12:48:48.472Z,20.57
2023-07-25T12:49:48.631Z,20.58
2023-07-25T12:50:48.335Z,20.44
2023-07-25T12:51:47.288Z,20.23
2023-07-25T12:52:47.220Z,20.10
2023-07-25T12:53:47.222Z,19.97
2023-07-25T12:54:48.629Z,20.07